KIND

Indianapolis International Airport

Indianapolis, Indiana, USA
METAR KIND 160554Z 16007KT 10SM FEW006 SCT050 OVC085 20/19 A2996 RMK AO2 SLP140 60021 T02000194 10222 20200 58006
Observed Flight Rules
Aug-16 @ 05:54 UTC (22 minutes ago) Visual Flight Rules
Wind Visibility Clouds
160° at 7 knots 10 miles
  • Few at 600' AGL
  • Scattered at 5,000' AGL
  • Overcast at 8,500' AGL
Temperatures Readings
Current 20°C / 68°F
Dewpoint 19°C / 66°F
Humidity 94%
Altimeter 29.96" Hg
Pressure 1014 hPa
Elevation 241
METAR KIND 160554Z 16007KT 10SM FEW006 SCT050 OVC085 20/19 A2996 RMK AO2 SLP140 60021 T02000194 10222 20200 58006
Observed Flight Rules
Aug-16 @ 05:54 UTC
(22 minutes ago)
VFR
Wind Visibility
160° at 7 knots 10 miles
Clouds
  • Few at 600' AGL
  • Scattered at 5,000' AGL
  • Overcast at 8,500' AGL
Temperature Dewpoint
20°C / 68°F 19°C / 66°F
Humidity Altimeter Pressure
94% 29.96" Hg 1014 hPa